sensor_id;sensor_type;location;lat;lon;timestamp;P1;durP1;ratioP1;P2;durP2;ratioP2
5257;SDS011;2651;51.594;9.928;2024-03-02T00:01:00;19.73;;;10.05;;
5257;SDS011;2651;51.594;9.928;2024-03-02T00:02:02;19.70;;;9.95;;
5257;SDS011;2651;51.594;9.928;2024-03-02T00:03:04;25.90;;;10.77;;
5257;SDS011;2651;51.594;9.928;2024-03-02T00:04:07;19.85;;;9.98;;
5257;SDS011;2651;51.594;9.928;2024-03-02T00:05:13;20.30;;;10.55;;
5257;SDS011;2651;51.594;9.928;2024-03-02T00:06:23;19.35;;;10.38;;
5257;SDS011;2651;51.594;9.928;2024-03-02T00:07:25;22.88;;;10.02;;
5257;SDS011;2651;51.594;9.928;2024-03-02T00:08:27;21.75;;;11.57;;
5257;SDS011;2651;51.594;9.928;2024-03-02T00:09:30;21.50;;;11.32;;
5257;SDS011;2651;51.594;9.928;2024-03-02T00:10:36;20.60;;;11.20;;
5257;SDS011;2651;51.594;9.928;2024-03-02T00:11:42;26.48;;;9.80;;
5257;SDS011;2651;51.594;9.928;2024-03-02T00:12:43;21.30;;;11.60;;
5257;SDS011;2651;51.594;9.928;2024-03-02T00:13:49;18.02;;;9.63;;
5257;SDS011;2651;51.594;9.928;2024-03-02T00:14:54;19.88;;;10.45;;
5257;SDS011;2651;51.594;9.928;2024-03-02T00:15:56;24.98;;;11.20;;
5257;SDS011;2651;51.594;9.928;2024-03-02T00:16:58;20.35;;;11.55;;
5257;SDS011;2651;51.594;9.928;2024-03-02T00:18:00;21.65;;;12.10;;
5257;SDS011;2651;51.594;9.928;2024-03-02T00:19:02;23.65;;;11.05;;
5257;SDS011;2651;51.594;9.928;2024-03-02T00:20:06;21.10;;;11.50;;
5257;SDS011;2651;51.594;9.928;2024-03-02T00:21:11;20.80;;;10.90;;
5257;SDS011;2651;51.594;9.928;2024-03-02T00:22:15;19.95;;;11.73;;
5257;SDS011;2651;51.594;9.928;2024-03-02T00:23:17;23.00;;;12.55;;
5257;SDS011;2651;51.594;9.928;2024-03-02T00:24:21;23.38;;;10.95;;
5257;SDS011;2651;51.594;9.928;2024-03-02T00:25:36;22.20;;;11.05;;
5257;SDS011;2651;51.594;9.928;2024-03-02T00:26:44;24.58;;;11.40;;
5257;SDS011;2651;51.594;9.928;2024-03-02T00:27:49;19.13;;;10.65;;
5257;SDS011;2651;51.594;9.928;2024-03-02T00:28:53;33.88;;;11.70;;
5257;SDS011;2651;51.594;9.928;2024-03-02T00:29:58;20.23;;;10.90;;
5257;SDS011;2651;51.594;9.928;2024-03-02T00:32:13;22.23;;;10.75;;
5257;SDS011;2651;51.594;9.928;2024-03-02T00:33:18;26.15;;;10.70;;
5257;SDS011;2651;51.594;9.928;2024-03-02T00:34:21;24.25;;;11.45;;
5257;SDS011;2651;51.594;9.928;2024-03-02T00:35:23;23.95;;;11.40;;
5257;SDS011;2651;51.594;9.928;2024-03-02T00:36:26;18.92;;;10.38;;
5257;SDS011;2651;51.594;9.928;2024-03-02T00:37:28;19.15;;;11.40;;
5257;SDS011;2651;51.594;9.928;2024-03-02T00:38:31;21.23;;;11.57;;
5257;SDS011;2651;51.594;9.928;2024-03-02T00:39:33;24.25;;;12.45;;
5257;SDS011;2651;51.594;9.928;2024-03-02T00:40:35;23.65;;;10.60;;
5257;SDS011;2651;51.594;9.928;2024-03-02T00:41:37;22.40;;;11.82;;
5257;SDS011;2651;51.594;9.928;2024-03-02T00:42:41;21.83;;;11.38;;
5257;SDS011;2651;51.594;9.928;2024-03-02T00:44:48;27.92;;;12.85;;
5257;SDS011;2651;51.594;9.928;2024-03-02T00:45:50;23.73;;;12.88;;
5257;SDS011;2651;51.594;9.928;2024-03-02T00:46:52;30.00;;;14.02;;
5257;SDS011;2651;51.594;9.928;2024-03-02T00:47:54;25.20;;;11.45;;
5257;SDS011;2651;51.594;9.928;2024-03-02T00:48:57;25.70;;;12.88;;
5257;SDS011;2651;51.594;9.928;2024-03-02T00:50:01;26.10;;;12.32;;
5257;SDS011;2651;51.594;9.928;2024-03-02T00:51:08;30.48;;;13.77;;
5257;SDS011;2651;51.594;9.928;2024-03-02T00:52:09;23.00;;;11.70;;
5257;SDS011;2651;51.594;9.928;2024-03-02T00:53:11;21.77;;;12.00;;
5257;SDS011;2651;51.594;9.928;2024-03-02T00:54:14;23.17;;;12.80;;
5257;SDS011;2651;51.594;9.928;2024-03-02T00:55:16;22.83;;;13.75;;
5257;SDS011;2651;51.594;9.928;2024-03-02T00:56:18;25.40;;;13.30;;
5257;SDS011;2651;51.594;9.928;2024-03-02T00:57:20;26.88;;;13.32;;
5257;SDS011;2651;51.594;9.928;2024-03-02T00:58:22;22.42;;;12.65;;
5257;SDS011;2651;51.594;9.928;2024-03-02T00:59:23;26.33;;;13.00;;
5257;SDS011;2651;51.594;9.928;2024-03-02T01:00:25;22.58;;;12.55;;
5257;SDS011;2651;51.594;9.928;2024-03-02T01:01:27;26.50;;;12.15;;
5257;SDS011;2651;51.594;9.928;2024-03-02T01:02:29;33.00;;;11.95;;
5257;SDS011;2651;51.594;9.928;2024-03-02T01:03:31;27.15;;;12.57;;
5257;SDS011;2651;51.594;9.928;2024-03-02T01:04:33;20.27;;;10.32;;
5257;SDS011;2651;51.594;9.928;2024-03-02T01:05:35;24.58;;;11.45;;
5257;SDS011;2651;51.594;9.928;2024-03-02T01:06:37;24.38;;;11.60;;
5257;SDS011;2651;51.594;9.928;2024-03-02T01:07:39;18.73;;;10.32;;
5257;SDS011;2651;51.594;9.928;2024-03-02T01:08:41;25.10;;;11.10;;
5257;SDS011;2651;51.594;9.928;2024-03-02T01:09:43;19.73;;;10.95;;
5257;SDS011;2651;51.594;9.928;2024-03-02T01:10:44;21.35;;;11.30;;
5257;SDS011;2651;51.594;9.928;2024-03-02T01:11:46;25.45;;;10.77;;
5257;SDS011;2651;51.594;9.928;2024-03-02T01:12:48;19.75;;;10.70;;
5257;SDS011;2651;51.594;9.928;2024-03-02T01:13:49;24.45;;;11.43;;
5257;SDS011;2651;51.594;9.928;2024-03-02T01:14:51;23.52;;;10.85;;
5257;SDS011;2651;51.594;9.928;2024-03-02T01:15:53;19.23;;;10.85;;
5257;SDS011;2651;51.594;9.928;2024-03-02T01:16:55;19.70;;;10.23;;
5257;SDS011;2651;51.594;9.928;2024-03-02T01:17:56;23.60;;;11.25;;
5257;SDS011;2651;51.594;9.928;2024-03-02T01:18:58;18.83;;;10.25;;
5257;SDS011;2651;51.594;9.928;2024-03-02T01:20:00;22.60;;;11.35;;
5257;SDS011;2651;51.594;9.928;2024-03-02T01:21:02;23.95;;;10.50;;
5257;SDS011;2651;51.594;9.928;2024-03-02T01:22:03;23.40;;;11.45;;
5257;SDS011;2651;51.594;9.928;2024-03-02T01:23:05;20.17;;;11.25;;
5257;SDS011;2651;51.594;9.928;2024-03-02T01:24:07;20.63;;;10.48;;
5257;SDS011;2651;51.594;9.928;2024-03-02T01:25:09;23.27;;;12.45;;
5257;SDS011;2651;51.594;9.928;2024-03-02T01:26:11;19.65;;;10.88;;
5257;SDS011;2651;51.594;9.928;2024-03-02T01:27:12;20.63;;;10.88;;
5257;SDS011;2651;51.594;9.928;2024-03-02T01:28:14;23.10;;;10.77;;
5257;SDS011;2651;51.594;9.928;2024-03-02T01:29:16;19.55;;;10.73;;
5257;SDS011;2651;51.594;9.928;2024-03-02T01:30:17;21.45;;;10.55;;
5257;SDS011;2651;51.594;9.928;2024-03-02T01:31:19;20.27;;;10.95;;
5257;SDS011;2651;51.594;9.928;2024-03-02T01:32:21;18.63;;;10.65;;
5257;SDS011;2651;51.594;9.928;2024-03-02T01:33:23;22.05;;;11.95;;
5257;SDS011;2651;51.594;9.928;2024-03-02T01:34:24;25.08;;;11.02;;
5257;SDS011;2651;51.594;9.928;2024-03-02T01:35:26;21.10;;;11.73;;
5257;SDS011;2651;51.594;9.928;2024-03-02T01:36:28;22.05;;;10.77;;
5257;SDS011;2651;51.594;9.928;2024-03-02T01:37:29;24.70;;;10.85;;
5257;SDS011;2651;51.594;9.928;2024-03-02T01:38:31;20.55;;;10.82;;
5257;SDS011;2651;51.594;9.928;2024-03-02T01:39:33;20.48;;;10.77;;
5257;SDS011;2651;51.594;9.928;2024-03-02T01:40:35;22.58;;;11.60;;
5257;SDS011;2651;51.594;9.928;2024-03-02T01:41:38;27.55;;;11.52;;
5257;SDS011;2651;51.594;9.928;2024-03-02T01:42:39;20.92;;;10.70;;
5257;SDS011;2651;51.594;9.928;2024-03-02T01:43:41;18.98;;;10.10;;
5257;SDS011;2651;51.594;9.928;2024-03-02T01:44:43;19.27;;;10.95;;
5257;SDS011;2651;51.594;9.928;2024-03-02T01:45:45;27.55;;;11.70;;
5257;SDS011;2651;51.594;9.928;2024-03-02T01:46:46;20.02;;;9.85;;
5257;SDS011;2651;51.594;9.928;2024-03-02T01:47:48;23.75;;;11.77;;
5257;SDS011;2651;51.594;9.928;2024-03-02T01:48:50;17.73;;;10.57;;
5257;SDS011;2651;51.594;9.928;2024-03-02T01:49:52;23.80;;;11.82;;
5257;SDS011;2651;51.594;9.928;2024-03-02T01:50:53;21.15;;;10.00;;
5257;SDS011;2651;51.594;9.928;2024-03-02T01:51:55;20.60;;;11.95;;
5257;SDS011;2651;51.594;9.928;2024-03-02T01:52:58;23.33;;;10.68;;
5257;SDS011;2651;51.594;9.928;2024-03-02T01:54:00;31.15;;;12.80;;
5257;SDS011;2651;51.594;9.928;2024-03-02T01:55:02;24.85;;;11.18;;
5257;SDS011;2651;51.594;9.928;2024-03-02T01:56:05;26.10;;;11.85;;
5257;SDS011;2651;51.594;9.928;2024-03-02T01:57:09;22.27;;;12.40;;
5257;SDS011;2651;51.594;9.928;2024-03-02T01:58:11;23.35;;;10.75;;
5257;SDS011;2651;51.594;9.928;2024-03-02T01:59:13;28.67;;;12.20;;
5257;SDS011;2651;51.594;9.928;2024-03-02T02:00:15;28.73;;;12.52;;
5257;SDS011;2651;51.594;9.928;2024-03-02T02:01:17;20.08;;;10.82;;
5257;SDS011;2651;51.594;9.928;2024-03-02T02:02:18;28.67;;;11.27;;
5257;SDS011;2651;51.594;9.928;2024-03-02T02:03:21;19.65;;;9.88;;
5257;SDS011;2651;51.594;9.928;2024-03-02T02:04:23;22.20;;;11.35;;
5257;SDS011;2651;51.594;9.928;2024-03-02T02:05:28;21.10;;;10.70;;
5257;SDS011;2651;51.594;9.928;2024-03-02T02:06:30;23.20;;;11.50;;
5257;SDS011;2651;51.594;9.928;2024-03-02T02:07:32;21.73;;;10.25;;
5257;SDS011;2651;51.594;9.928;2024-03-02T02:08:38;16.80;;;9.20;;
5257;SDS011;2651;51.594;9.928;2024-03-02T02:09:43;24.95;;;10.98;;
5257;SDS011;2651;51.594;9.928;2024-03-02T02:10:45;21.55;;;10.88;;
5257;SDS011;2651;51.594;9.928;2024-03-02T02:11:47;22.27;;;11.23;;
5257;SDS011;2651;51.594;9.928;2024-03-02T02:12:49;19.00;;;9.25;;
5257;SDS011;2651;51.594;9.928;2024-03-02T02:13:50;23.92;;;10.43;;
5257;SDS011;2651;51.594;9.928;2024-03-02T02:14:52;18.55;;;10.63;;
5257;SDS011;2651;51.594;9.928;2024-03-02T02:15:54;20.98;;;11.07;;
5257;SDS011;2651;51.594;9.928;2024-03-02T02:16:56;24.10;;;9.85;;
5257;SDS011;2651;51.594;9.928;2024-03-02T02:17:58;25.80;;;11.23;;
5257;SDS011;2651;51.594;9.928;2024-03-02T02:19:00;20.60;;;10.38;;
5257;SDS011;2651;51.594;9.928;2024-03-02T02:20:02;30.10;;;10.75;;
5257;SDS011;2651;51.594;9.928;2024-03-02T02:21:06;23.88;;;10.30;;
5257;SDS011;2651;51.594;9.928;2024-03-02T02:22:09;21.25;;;10.70;;
5257;SDS011;2651;51.594;9.928;2024-03-02T02:23:11;17.70;;;9.18;;
5257;SDS011;2651;51.594;9.928;2024-03-02T02:24:14;21.20;;;10.35;;
5257;SDS011;2651;51.594;9.928;2024-03-02T02:25:16;21.00;;;10.73;;
5257;SDS011;2651;51.594;9.928;2024-03-02T02:26:18;16.20;;;9.15;;
5257;SDS011;2651;51.594;9.928;2024-03-02T02:27:19;17.35;;;10.35;;
5257;SDS011;2651;51.594;9.928;2024-03-02T02:28:21;16.17;;;9.60;;
5257;SDS011;2651;51.594;9.928;2024-03-02T02:29:23;22.77;;;10.10;;
5257;SDS011;2651;51.594;9.928;2024-03-02T02:30:25;20.23;;;9.80;;
5257;SDS011;2651;51.594;9.928;2024-03-02T02:31:36;22.02;;;8.70;;
5257;SDS011;2651;51.594;9.928;2024-03-02T02:32:39;22.55;;;9.90;;
5257;SDS011;2651;51.594;9.928;2024-03-02T02:33:40;18.92;;;9.32;;
5257;SDS011;2651;51.594;9.928;2024-03-02T02:34:43;20.10;;;9.68;;
5257;SDS011;2651;51.594;9.928;2024-03-02T02:35:44;23.25;;;10.57;;
5257;SDS011;2651;51.594;9.928;2024-03-02T02:36:46;18.52;;;9.73;;
5257;SDS011;2651;51.594;9.928;2024-03-02T02:37:48;19.92;;;10.05;;
5257;SDS011;2651;51.594;9.928;2024-03-02T02:38:51;22.00;;;11.10;;
5257;SDS011;2651;51.594;9.928;2024-03-02T02:39:53;21.00;;;10.82;;
5257;SDS011;2651;51.594;9.928;2024-03-02T02:40:55;19.45;;;11.35;;
5257;SDS011;2651;51.594;9.928;2024-03-02T02:41:56;24.65;;;12.90;;
5257;SDS011;2651;51.594;9.928;2024-03-02T02:42:58;24.60;;;13.15;;
5257;SDS011;2651;51.594;9.928;2024-03-02T02:44:00;22.52;;;10.88;;
5257;SDS011;2651;51.594;9.928;2024-03-02T02:45:02;21.63;;;11.02;;
5257;SDS011;2651;51.594;9.928;2024-03-02T02:46:04;21.58;;;11.23;;
5257;SDS011;2651;51.594;9.928;2024-03-02T02:47:05;23.83;;;12.60;;
5257;SDS011;2651;51.594;9.928;2024-03-02T02:48:07;24.40;;;12.10;;
5257;SDS011;2651;51.594;9.928;2024-03-02T02:49:09;26.42;;;12.82;;
5257;SDS011;2651;51.594;9.928;2024-03-02T02:50:11;27.67;;;11.95;;
5257;SDS011;2651;51.594;9.928;2024-03-02T02:51:14;18.75;;;10.25;;
5257;SDS011;2651;51.594;9.928;2024-03-02T02:52:15;24.13;;;11.35;;
5257;SDS011;2651;51.594;9.928;2024-03-02T02:53:17;21.90;;;11.30;;
5257;SDS011;2651;51.594;9.928;2024-03-02T02:54:19;25.70;;;12.10;;
5257;SDS011;2651;51.594;9.928;2024-03-02T02:55:21;26.65;;;12.52;;
5257;SDS011;2651;51.594;9.928;2024-03-02T02:56:22;28.38;;;12.20;;
5257;SDS011;2651;51.594;9.928;2024-03-02T02:57:24;31.30;;;12.95;;
5257;SDS011;2651;51.594;9.928;2024-03-02T02:58:26;22.85;;;11.25;;
5257;SDS011;2651;51.594;9.928;2024-03-02T02:59:28;27.25;;;11.90;;
5257;SDS011;2651;51.594;9.928;2024-03-02T03:00:29;23.13;;;12.07;;
5257;SDS011;2651;51.594;9.928;2024-03-02T03:01:31;23.30;;;10.75;;
5257;SDS011;2651;51.594;9.928;2024-03-02T03:02:33;17.85;;;10.13;;
5257;SDS011;2651;51.594;9.928;2024-03-02T03:03:35;22.40;;;11.10;;
5257;SDS011;2651;51.594;9.928;2024-03-02T03:04:36;21.20;;;10.95;;
5257;SDS011;2651;51.594;9.928;2024-03-02T03:05:40;31.17;;;12.52;;
5257;SDS011;2651;51.594;9.928;2024-03-02T03:06:42;20.67;;;11.20;;
5257;SDS011;2651;51.594;9.928;2024-03-02T03:07:44;20.33;;;10.40;;
5257;SDS011;2651;51.594;9.928;2024-03-02T03:08:46;16.95;;;10.75;;
5257;SDS011;2651;51.594;9.928;2024-03-02T03:09:48;19.45;;;10.50;;
5257;SDS011;2651;51.594;9.928;2024-03-02T03:10:50;21.05;;;10.43;;
5257;SDS011;2651;51.594;9.928;2024-03-02T03:11:51;19.50;;;9.68;;
5257;SDS011;2651;51.594;9.928;2024-03-02T03:12:53;23.83;;;11.65;;
5257;SDS011;2651;51.594;9.928;2024-03-02T03:13:57;21.83;;;10.27;;
5257;SDS011;2651;51.594;9.928;2024-03-02T03:14:59;18.85;;;10.75;;
5257;SDS011;2651;51.594;9.928;2024-03-02T03:16:01;21.38;;;10.00;;
5257;SDS011;2651;51.594;9.928;2024-03-02T03:17:03;20.35;;;10.55;;
5257;SDS011;2651;51.594;9.928;2024-03-02T03:18:04;23.48;;;11.77;;
5257;SDS011;2651;51.594;9.928;2024-03-02T03:19:06;17.48;;;9.68;;
5257;SDS011;2651;51.594;9.928;2024-03-02T03:20:08;19.83;;;10.15;;
5257;SDS011;2651;51.594;9.928;2024-03-02T03:21:16;15.27;;;9.85;;
5257;SDS011;2651;51.594;9.928;2024-03-02T03:22:18;18.13;;;9.43;;
5257;SDS011;2651;51.594;9.928;2024-03-02T03:23:20;19.05;;;9.93;;
5257;SDS011;2651;51.594;9.928;2024-03-02T03:24:22;19.45;;;9.90;;
5257;SDS011;2651;51.594;9.928;2024-03-02T03:25:23;17.92;;;9.05;;
5257;SDS011;2651;51.594;9.928;2024-03-02T03:26:25;19.42;;;10.68;;
5257;SDS011;2651;51.594;9.928;2024-03-02T03:27:27;15.85;;;9.23;;
5257;SDS011;2651;51.594;9.928;2024-03-02T03:28:28;14.50;;;8.68;;
5257;SDS011;2651;51.594;9.928;2024-03-02T03:29:30;17.55;;;9.50;;
5257;SDS011;2651;51.594;9.928;2024-03-02T03:30:32;17.10;;;9.75;;
5257;SDS011;2651;51.594;9.928;2024-03-02T03:31:33;15.93;;;8.95;;
5257;SDS011;2651;51.594;9.928;2024-03-02T03:32:35;16.17;;;9.73;;
5257;SDS011;2651;51.594;9.928;2024-03-02T03:33:37;17.42;;;9.20;;
5257;SDS011;2651;51.594;9.928;2024-03-02T03:34:39;18.95;;;10.27;;
5257;SDS011;2651;51.594;9.928;2024-03-02T03:35:41;19.88;;;9.77;;
5257;SDS011;2651;51.594;9.928;2024-03-02T03:36:43;17.48;;;9.38;;
5257;SDS011;2651;51.594;9.928;2024-03-02T03:37:45;20.60;;;11.15;;
5257;SDS011;2651;51.594;9.928;2024-03-02T03:38:46;17.48;;;9.48;;
5257;SDS011;2651;51.594;9.928;2024-03-02T03:39:49;20.77;;;11.27;;
5257;SDS011;2651;51.594;9.928;2024-03-02T03:40:50;21.75;;;11.63;;
5257;SDS011;2651;51.594;9.928;2024-03-02T03:41:52;18.25;;;9.75;;
5257;SDS011;2651;51.594;9.928;2024-03-02T03:42:54;18.25;;;9.55;;
5257;SDS011;2651;51.594;9.928;2024-03-02T03:43:57;18.50;;;10.55;;
5257;SDS011;2651;51.594;9.928;2024-03-02T03:44:59;23.40;;;11.13;;
5257;SDS011;2651;51.594;9.928;2024-03-02T03:46:00;28.73;;;12.13;;
5257;SDS011;2651;51.594;9.928;2024-03-02T03:47:03;19.42;;;10.50;;
5257;SDS011;2651;51.594;9.928;2024-03-02T03:48:05;20.60;;;10.40;;
5257;SDS011;2651;51.594;9.928;2024-03-02T03:49:07;19.00;;;9.75;;
5257;SDS011;2651;51.594;9.928;2024-03-02T03:50:09;20.17;;;9.40;;
5257;SDS011;2651;51.594;9.928;2024-03-02T03:51:11;17.10;;;9.63;;
5257;SDS011;2651;51.594;9.928;2024-03-02T03:52:12;15.13;;;9.25;;
5257;SDS011;2651;51.594;9.928;2024-03-02T03:53:14;17.13;;;9.23;;
5257;SDS011;2651;51.594;9.928;2024-03-02T03:54:16;20.40;;;10.45;;
5257;SDS011;2651;51.594;9.928;2024-03-02T03:55:17;18.85;;;9.30;;
5257;SDS011;2651;51.594;9.928;2024-03-02T03:56:19;17.55;;;9.68;;
5257;SDS011;2651;51.594;9.928;2024-03-02T03:57:21;19.27;;;10.63;;
5257;SDS011;2651;51.594;9.928;2024-03-02T03:58:23;18.85;;;10.15;;
5257;SDS011;2651;51.594;9.928;2024-03-02T03:59:24;19.80;;;10.38;;
5257;SDS011;2651;51.594;9.928;2024-03-02T04:00:26;16.83;;;9.50;;
5257;SDS011;2651;51.594;9.928;2024-03-02T04:01:28;21.58;;;11.25;;
5257;SDS011;2651;51.594;9.928;2024-03-02T04:02:29;19.38;;;10.40;;
5257;SDS011;2651;51.594;9.928;2024-03-02T04:03:31;20.95;;;10.23;;
5257;SDS011;2651;51.594;9.928;2024-03-02T04:04:33;19.55;;;9.45;;
5257;SDS011;2651;51.594;9.928;2024-03-02T04:05:34;19.27;;;9.80;;
5257;SDS011;2651;51.594;9.928;2024-03-02T04:06:36;23.35;;;10.52;;
5257;SDS011;2651;51.594;9.928;2024-03-02T04:07:38;19.13;;;10.00;;
5257;SDS011;2651;51.594;9.928;2024-03-02T04:08:41;25.65;;;12.80;;
5257;SDS011;2651;51.594;9.928;2024-03-02T04:09:43;18.40;;;10.02;;
5257;SDS011;2651;51.594;9.928;2024-03-02T04:10:45;18.20;;;10.32;;
5257;SDS011;2651;51.594;9.928;2024-03-02T04:11:46;19.80;;;10.05;;
5257;SDS011;2651;51.594;9.928;2024-03-02T04:12:49;18.63;;;9.32;;
5257;SDS011;2651;51.594;9.928;2024-03-02T04:13:51;16.40;;;9.35;;
5257;SDS011;2651;51.594;9.928;2024-03-02T04:14:56;28.05;;;12.25;;
5257;SDS011;2651;51.594;9.928;2024-03-02T04:15:58;21.10;;;10.75;;
5257;SDS011;2651;51.594;9.928;2024-03-02T04:17:00;19.83;;;9.80;;
5257;SDS011;2651;51.594;9.928;2024-03-02T04:18:01;16.60;;;9.48;;
5257;SDS011;2651;51.594;9.928;2024-03-02T04:19:03;22.30;;;11.65;;
5257;SDS011;2651;51.594;9.928;2024-03-02T04:20:05;28.38;;;11.20;;
5257;SDS011;2651;51.594;9.928;2024-03-02T04:21:07;16.00;;;9.45;;
5257;SDS011;2651;51.594;9.928;2024-03-02T04:22:09;20.67;;;10.20;;
5257;SDS011;2651;51.594;9.928;2024-03-02T04:23:21;19.95;;;9.90;;
5257;SDS011;2651;51.594;9.928;2024-03-02T04:24:23;19.20;;;10.05;;
5257;SDS011;2651;51.594;9.928;2024-03-02T04:25:24;21.05;;;9.98;;
5257;SDS011;2651;51.594;9.928;2024-03-02T04:26:26;19.50;;;9.85;;
5257;SDS011;2651;51.594;9.928;2024-03-02T04:27:28;20.95;;;10.40;;
5257;SDS011;2651;51.594;9.928;2024-03-02T04:28:30;15.40;;;8.45;;
5257;SDS011;2651;51.594;9.928;2024-03-02T04:29:32;17.77;;;9.20;;
5257;SDS011;2651;51.594;9.928;2024-03-02T04:30:33;19.90;;;9.52;;
5257;SDS011;2651;51.594;9.928;2024-03-02T04:31:35;26.02;;;10.68;;
5257;SDS011;2651;51.594;9.928;2024-03-02T04:32:37;19.35;;;9.63;;
5257;SDS011;2651;51.594;9.928;2024-03-02T04:33:38;18.50;;;9.98;;
5257;SDS011;2651;51.594;9.928;2024-03-02T04:34:40;26.17;;;10.32;;
5257;SDS011;2651;51.594;9.928;2024-03-02T04:35:42;17.25;;;10.63;;
5257;SDS011;2651;51.594;9.928;2024-03-02T04:36:43;18.85;;;10.25;;
5257;SDS011;2651;51.594;9.928;2024-03-02T04:37:45;20.05;;;10.30;;
5257;SDS011;2651;51.594;9.928;2024-03-02T04:38:47;18.25;;;10.77;;
5257;SDS011;2651;51.594;9.928;2024-03-02T04:39:49;25.60;;;10.05;;
5257;SDS011;2651;51.594;9.928;2024-03-02T04:40:51;22.67;;;10.80;;
5257;SDS011;2651;51.594;9.928;2024-03-02T04:41:52;23.48;;;9.75;;
5257;SDS011;2651;51.594;9.928;2024-03-02T04:42:54;21.25;;;11.40;;
5257;SDS011;2651;51.594;9.928;2024-03-02T04:43:56;20.25;;;10.27;;
5257;SDS011;2651;51.594;9.928;2024-03-02T04:44:57;21.02;;;10.65;;
5257;SDS011;2651;51.594;9.928;2024-03-02T04:45:59;17.33;;;9.90;;
5257;SDS011;2651;51.594;9.928;2024-03-02T04:47:02;22.30;;;11.10;;
5257;SDS011;2651;51.594;9.928;2024-03-02T04:48:04;17.65;;;10.00;;
5257;SDS011;2651;51.594;9.928;2024-03-02T04:49:06;20.05;;;10.35;;
5257;SDS011;2651;51.594;9.928;2024-03-02T04:50:08;25.08;;;10.55;;
5257;SDS011;2651;51.594;9.928;2024-03-02T04:51:10;22.25;;;10.70;;
5257;SDS011;2651;51.594;9.928;2024-03-02T04:52:12;18.67;;;10.02;;
5257;SDS011;2651;51.594;9.928;2024-03-02T04:53:13;19.23;;;9.55;;
5257;SDS011;2651;51.594;9.928;2024-03-02T04:54:15;19.10;;;10.25;;
5257;SDS011;2651;51.594;9.928;2024-03-02T04:55:17;20.67;;;9.18;;
5257;SDS011;2651;51.594;9.928;2024-03-02T04:56:50;16.20;;;8.30;;
5257;SDS011;2651;51.594;9.928;2024-03-02T04:57:52;17.25;;;9.48;;
5257;SDS011;2651;51.594;9.928;2024-03-02T04:58:56;17.20;;;8.63;;
5257;SDS011;2651;51.594;9.928;2024-03-02T04:59:57;18.25;;;9.50;;
5257;SDS011;2651;51.594;9.928;2024-03-02T05:00:59;17.42;;;9.90;;
5257;SDS011;2651;51.594;9.928;2024-03-02T05:02:01;23.77;;;10.55;;
5257;SDS011;2651;51.594;9.928;2024-03-02T05:03:03;22.80;;;10.05;;
5257;SDS011;2651;51.594;9.928;2024-03-02T05:04:05;20.33;;;9.70;;
5257;SDS011;2651;51.594;9.928;2024-03-02T05:05:06;18.83;;;9.43;;
5257;SDS011;2651;51.594;9.928;2024-03-02T05:06:08;21.90;;;11.43;;
5257;SDS011;2651;51.594;9.928;2024-03-02T05:07:10;16.42;;;8.93;;
5257;SDS011;2651;51.594;9.928;2024-03-02T05:08:12;23.35;;;10.27;;
5257;SDS011;2651;51.594;9.928;2024-03-02T05:09:13;19.30;;;10.13;;
5257;SDS011;2651;51.594;9.928;2024-03-02T05:10:15;19.10;;;9.95;;
5257;SDS011;2651;51.594;9.928;2024-03-02T05:11:17;21.98;;;9.80;;
5257;SDS011;2651;51.594;9.928;2024-03-02T05:12:37;18.33;;;9.20;;
5257;SDS011;2651;51.594;9.928;2024-03-02T05:13:45;16.85;;;8.98;;
5257;SDS011;2651;51.594;9.928;2024-03-02T05:14:47;16.40;;;8.88;;
5257;SDS011;2651;51.594;9.928;2024-03-02T05:15:49;14.68;;;8.60;;
5257;SDS011;2651;51.594;9.928;2024-03-02T05:16:51;17.45;;;9.48;;
5257;SDS011;2651;51.594;9.928;2024-03-02T05:17:53;15.88;;;9.68;;
5257;SDS011;2651;51.594;9.928;2024-03-02T05:18:54;19.40;;;9.07;;
5257;SDS011;2651;51.594;9.928;2024-03-02T05:19:56;16.98;;;8.95;;
5257;SDS011;2651;51.594;9.928;2024-03-02T05:20:58;16.73;;;8.23;;
5257;SDS011;2651;51.594;9.928;2024-03-02T05:22:00;15.20;;;8.70;;
5257;SDS011;2651;51.594;9.928;2024-03-02T05:23:02;15.25;;;7.50;;
5257;SDS011;2651;51.594;9.928;2024-03-02T05:24:04;18.65;;;8.80;;
5257;SDS011;2651;51.594;9.928;2024-03-02T05:25:06;16.38;;;9.13;;
5257;SDS011;2651;51.594;9.928;2024-03-02T05:26:10;18.02;;;9.82;;
5257;SDS011;2651;51.594;9.928;2024-03-02T05:27:15;14.57;;;8.43;;
5257;SDS011;2651;51.594;9.928;2024-03-02T05:28:17;15.43;;;7.32;;
5257;SDS011;2651;51.594;9.928;2024-03-02T05:29:18;15.23;;;8.70;;
5257;SDS011;2651;51.594;9.928;2024-03-02T05:30:20;14.45;;;8.50;;
5257;SDS011;2651;51.594;9.928;2024-03-02T05:31:22;17.33;;;8.85;;
5257;SDS011;2651;51.594;9.928;2024-03-02T05:32:23;14.32;;;8.60;;
5257;SDS011;2651;51.594;9.928;2024-03-02T05:33:25;16.00;;;8.07;;
5257;SDS011;2651;51.594;9.928;2024-03-02T05:34:27;14.98;;;8.07;;
5257;SDS011;2651;51.594;9.928;2024-03-02T05:35:29;16.63;;;8.65;;
5257;SDS011;2651;51.594;9.928;2024-03-02T05:36:31;18.95;;;8.57;;
5257;SDS011;2651;51.594;9.928;2024-03-02T05:37:33;18.88;;;9.48;;
5257;SDS011;2651;51.594;9.928;2024-03-02T05:38:35;18.17;;;8.68;;
5257;SDS011;2651;51.594;9.928;2024-03-02T05:39:37;16.70;;;9.32;;
5257;SDS011;2651;51.594;9.928;2024-03-02T05:40:38;23.90;;;9.80;;
5257;SDS011;2651;51.594;9.928;2024-03-02T05:41:40;20.83;;;9.57;;
5257;SDS011;2651;51.594;9.928;2024-03-02T05:42:42;23.10;;;10.68;;
5257;SDS011;2651;51.594;9.928;2024-03-02T05:43:44;16.63;;;9.18;;
5257;SDS011;2651;51.594;9.928;2024-03-02T05:44:45;18.30;;;9.75;;
5257;SDS011;2651;51.594;9.928;2024-03-02T05:45:47;23.13;;;10.45;;
5257;SDS011;2651;51.594;9.928;2024-03-02T05:46:49;16.08;;;9.55;;
5257;SDS011;2651;51.594;9.928;2024-03-02T05:47:51;19.13;;;9.38;;
5257;SDS011;2651;51.594;9.928;2024-03-02T05:48:53;18.08;;;9.10;;
5257;SDS011;2651;51.594;9.928;2024-03-02T05:49:54;21.45;;;10.13;;
5257;SDS011;2651;51.594;9.928;2024-03-02T05:50:56;25.90;;;10.40;;
5257;SDS011;2651;51.594;9.928;2024-03-02T05:51:57;15.20;;;9.90;;
5257;SDS011;2651;51.594;9.928;2024-03-02T05:52:59;18.25;;;9.60;;
5257;SDS011;2651;51.594;9.928;2024-03-02T05:54:01;16.05;;;8.73;;
5257;SDS011;2651;51.594;9.928;2024-03-02T05:55:03;19.17;;;9.90;;
5257;SDS011;2651;51.594;9.928;2024-03-02T05:56:06;16.83;;;9.45;;
5257;SDS011;2651;51.594;9.928;2024-03-02T05:57:08;14.68;;;9.32;;
5257;SDS011;2651;51.594;9.928;2024-03-02T05:58:33;24.15;;;9.02;;
5257;SDS011;2651;51.594;9.928;2024-03-02T05:59:53;13.25;;;7.85;;
5257;SDS011;2651;51.594;9.928;2024-03-02T06:00:55;21.50;;;9.68;;
5257;SDS011;2651;51.594;9.928;2024-03-02T06:01:57;19.02;;;10.20;;
5257;SDS011;2651;51.594;9.928;2024-03-02T06:02:59;16.75;;;9.63;;
5257;SDS011;2651;51.594;9.928;2024-03-02T06:04:00;19.17;;;8.90;;
5257;SDS011;2651;51.594;9.928;2024-03-02T06:05:02;22.45;;;10.88;;
5257;SDS011;2651;51.594;9.928;2024-03-02T06:06:05;19.25;;;9.20;;
5257;SDS011;2651;51.594;9.928;2024-03-02T06:07:07;20.13;;;10.60;;
5257;SDS011;2651;51.594;9.928;2024-03-02T06:08:08;20.88;;;9.38;;
5257;SDS011;2651;51.594;9.928;2024-03-02T06:09:10;22.58;;;9.73;;
5257;SDS011;2651;51.594;9.928;2024-03-02T06:10:14;15.18;;;8.88;;
5257;SDS011;2651;51.594;9.928;2024-03-02T06:11:16;19.30;;;11.88;;
5257;SDS011;2651;51.594;9.928;2024-03-02T06:12:20;28.83;;;10.00;;
5257;SDS011;2651;51.594;9.928;2024-03-02T06:13:22;19.30;;;10.45;;
5257;SDS011;2651;51.594;9.928;2024-03-02T06:14:24;21.83;;;10.48;;
5257;SDS011;2651;51.594;9.928;2024-03-02T06:15:25;21.05;;;10.98;;
5257;SDS011;2651;51.594;9.928;2024-03-02T06:16:27;22.10;;;10.32;;
5257;SDS011;2651;51.594;9.928;2024-03-02T06:17:29;22.70;;;10.82;;
5257;SDS011;2651;51.594;9.928;2024-03-02T06:18:31;19.02;;;10.77;;
5257;SDS011;2651;51.594;9.928;2024-03-02T06:19:33;19.40;;;10.00;;
5257;SDS011;2651;51.594;9.928;2024-03-02T06:20:35;22.25;;;11.52;;
5257;SDS011;2651;51.594;9.928;2024-03-02T06:21:37;21.80;;;9.95;;